sensor_id;sensor_type;location;lat;lon;timestamp;P1;durP1;ratioP1;P2;durP2;ratioP2
52618;SDS011;38513;53.234;6.568;2023-06-26T00:02:23;8.82;;;6.75;;
52618;SDS011;38513;53.234;6.568;2023-06-26T00:04:49;10.25;;;6.88;;
52618;SDS011;38513;53.234;6.568;2023-06-26T00:07:19;9.73;;;6.85;;
52618;SDS011;38513;53.234;6.568;2023-06-26T00:09:45;9.52;;;6.55;;
52618;SDS011;38513;53.234;6.568;2023-06-26T00:12:11;10.82;;;6.78;;
52618;SDS011;38513;53.234;6.568;2023-06-26T00:14:37;10.20;;;6.82;;
52618;SDS011;38513;53.234;6.568;2023-06-26T00:17:03;9.55;;;6.35;;
52618;SDS011;38513;53.234;6.568;2023-06-26T00:19:30;9.98;;;6.85;;
52618;SDS011;38513;53.234;6.568;2023-06-26T00:21:56;10.20;;;6.47;;
52618;SDS011;38513;53.234;6.568;2023-06-26T00:24:22;9.68;;;6.90;;
52618;SDS011;38513;53.234;6.568;2023-06-26T00:26:48;9.38;;;6.95;;
52618;SDS011;38513;53.234;6.568;2023-06-26T00:29:15;9.73;;;6.40;;
52618;SDS011;38513;53.234;6.568;2023-06-26T00:31:41;9.60;;;6.80;;
52618;SDS011;38513;53.234;6.568;2023-06-26T00:34:07;9.68;;;7.03;;
52618;SDS011;38513;53.234;6.568;2023-06-26T00:36:33;10.45;;;7.05;;
52618;SDS011;38513;53.234;6.568;2023-06-26T00:38:59;11.00;;;7.00;;
52618;SDS011;38513;53.234;6.568;2023-06-26T00:41:25;9.40;;;7.03;;
52618;SDS011;38513;53.234;6.568;2023-06-26T00:43:51;9.55;;;7.07;;
52618;SDS011;38513;53.234;6.568;2023-06-26T00:46:17;10.63;;;7.40;;
52618;SDS011;38513;53.234;6.568;2023-06-26T00:48:47;10.43;;;7.78;;
52618;SDS011;38513;53.234;6.568;2023-06-26T00:51:14;9.98;;;7.28;;
52618;SDS011;38513;53.234;6.568;2023-06-26T00:53:40;9.95;;;7.18;;
52618;SDS011;38513;53.234;6.568;2023-06-26T00:56:06;9.90;;;7.40;;
52618;SDS011;38513;53.234;6.568;2023-06-26T00:58:32;10.90;;;7.35;;
52618;SDS011;38513;53.234;6.568;2023-06-26T01:00:58;10.32;;;7.82;;
52618;SDS011;38513;53.234;6.568;2023-06-26T01:03:26;10.25;;;7.85;;
52618;SDS011;38513;53.234;6.568;2023-06-26T01:05:52;9.27;;;7.30;;
52618;SDS011;38513;53.234;6.568;2023-06-26T01:08:18;10.07;;;7.03;;
52618;SDS011;38513;53.234;6.568;2023-06-26T01:10:45;11.00;;;7.15;;
52618;SDS011;38513;53.234;6.568;2023-06-26T01:13:12;10.77;;;8.05;;
52618;SDS011;38513;53.234;6.568;2023-06-26T01:15:39;10.90;;;7.15;;
52618;SDS011;38513;53.234;6.568;2023-06-26T01:18:05;9.43;;;7.50;;
52618;SDS011;38513;53.234;6.568;2023-06-26T01:20:35;10.32;;;7.68;;
52618;SDS011;38513;53.234;6.568;2023-06-26T01:23:20;9.80;;;7.32;;
52618;SDS011;38513;53.234;6.568;2023-06-26T01:28:19;10.45;;;7.40;;
52618;SDS011;38513;53.234;6.568;2023-06-26T01:30:48;9.32;;;7.70;;
52618;SDS011;38513;53.234;6.568;2023-06-26T01:33:14;9.68;;;7.40;;
52618;SDS011;38513;53.234;6.568;2023-06-26T01:35:41;11.38;;;7.57;;
52618;SDS011;38513;53.234;6.568;2023-06-26T01:38:14;10.00;;;7.50;;
52618;SDS011;38513;53.234;6.568;2023-06-26T01:40:41;10.20;;;7.55;;
52618;SDS011;38513;53.234;6.568;2023-06-26T01:43:10;9.85;;;7.32;;
52618;SDS011;38513;53.234;6.568;2023-06-26T01:45:40;10.50;;;7.60;;
52618;SDS011;38513;53.234;6.568;2023-06-26T01:48:06;10.25;;;7.50;;
52618;SDS011;38513;53.234;6.568;2023-06-26T01:50:33;12.80;;;8.05;;
52618;SDS011;38513;53.234;6.568;2023-06-26T01:53:02;10.02;;;7.82;;
52618;SDS011;38513;53.234;6.568;2023-06-26T01:58:11;10.52;;;8.05;;
52618;SDS011;38513;53.234;6.568;2023-06-26T02:00:39;10.25;;;7.75;;
52618;SDS011;38513;53.234;6.568;2023-06-26T02:03:05;10.52;;;7.53;;
52618;SDS011;38513;53.234;6.568;2023-06-26T02:05:32;10.43;;;7.65;;
52618;SDS011;38513;53.234;6.568;2023-06-26T02:07:58;10.82;;;8.57;;
52618;SDS011;38513;53.234;6.568;2023-06-26T02:10:29;11.25;;;7.88;;
52618;SDS011;38513;53.234;6.568;2023-06-26T02:12:55;10.82;;;7.80;;
52618;SDS011;38513;53.234;6.568;2023-06-26T02:15:21;12.23;;;8.75;;
52618;SDS011;38513;53.234;6.568;2023-06-26T02:17:47;10.63;;;8.63;;
52618;SDS011;38513;53.234;6.568;2023-06-26T02:20:14;13.30;;;8.85;;
52618;SDS011;38513;53.234;6.568;2023-06-26T02:22:40;11.48;;;8.93;;
52618;SDS011;38513;53.234;6.568;2023-06-26T02:25:07;10.73;;;8.30;;
52618;SDS011;38513;53.234;6.568;2023-06-26T02:27:33;10.63;;;7.50;;
52618;SDS011;38513;53.234;6.568;2023-06-26T02:29:59;12.43;;;8.32;;
52618;SDS011;38513;53.234;6.568;2023-06-26T02:32:25;10.63;;;8.40;;
52618;SDS011;38513;53.234;6.568;2023-06-26T02:34:51;12.65;;;8.68;;
52618;SDS011;38513;53.234;6.568;2023-06-26T02:37:19;11.32;;;8.55;;
52618;SDS011;38513;53.234;6.568;2023-06-26T02:39:45;13.07;;;8.70;;
52618;SDS011;38513;53.234;6.568;2023-06-26T02:42:14;11.25;;;8.40;;
52618;SDS011;38513;53.234;6.568;2023-06-26T02:44:40;11.60;;;8.43;;
52618;SDS011;38513;53.234;6.568;2023-06-26T02:47:06;11.13;;;8.90;;
52618;SDS011;38513;53.234;6.568;2023-06-26T02:49:32;10.65;;;8.07;;
52618;SDS011;38513;53.234;6.568;2023-06-26T02:51:58;11.73;;;8.65;;
52618;SDS011;38513;53.234;6.568;2023-06-26T02:54:24;12.45;;;9.40;;
52618;SDS011;38513;53.234;6.568;2023-06-26T02:56:50;11.68;;;9.07;;
52618;SDS011;38513;53.234;6.568;2023-06-26T02:59:17;13.05;;;10.20;;
52618;SDS011;38513;53.234;6.568;2023-06-26T03:01:43;12.27;;;9.45;;
52618;SDS011;38513;53.234;6.568;2023-06-26T03:04:12;12.65;;;8.95;;
52618;SDS011;38513;53.234;6.568;2023-06-26T03:06:40;12.80;;;9.70;;
52618;SDS011;38513;53.234;6.568;2023-06-26T03:09:06;13.27;;;10.07;;
52618;SDS011;38513;53.234;6.568;2023-06-26T03:11:32;13.20;;;9.80;;
52618;SDS011;38513;53.234;6.568;2023-06-26T03:13:58;13.30;;;10.93;;
52618;SDS011;38513;53.234;6.568;2023-06-26T03:16:24;12.45;;;10.05;;
52618;SDS011;38513;53.234;6.568;2023-06-26T03:18:50;14.63;;;10.52;;
52618;SDS011;38513;53.234;6.568;2023-06-26T03:21:17;13.00;;;10.90;;
52618;SDS011;38513;53.234;6.568;2023-06-26T03:23:43;13.13;;;10.68;;
52618;SDS011;38513;53.234;6.568;2023-06-26T03:26:09;12.88;;;10.18;;
52618;SDS011;38513;53.234;6.568;2023-06-26T03:28:35;14.10;;;10.80;;
52618;SDS011;38513;53.234;6.568;2023-06-26T03:31:01;13.43;;;10.70;;
52618;SDS011;38513;53.234;6.568;2023-06-26T03:33:27;13.27;;;10.90;;
52618;SDS011;38513;53.234;6.568;2023-06-26T03:35:53;13.93;;;11.10;;
52618;SDS011;38513;53.234;6.568;2023-06-26T03:38:21;13.68;;;10.95;;
52618;SDS011;38513;53.234;6.568;2023-06-26T03:40:47;13.70;;;11.20;;
52618;SDS011;38513;53.234;6.568;2023-06-26T03:43:13;13.00;;;11.10;;
52618;SDS011;38513;53.234;6.568;2023-06-26T03:45:39;12.73;;;10.55;;
52618;SDS011;38513;53.234;6.568;2023-06-26T03:48:05;14.93;;;11.00;;
52618;SDS011;38513;53.234;6.568;2023-06-26T03:50:33;15.13;;;12.02;;
52618;SDS011;38513;53.234;6.568;2023-06-26T03:52:59;13.97;;;11.70;;
52618;SDS011;38513;53.234;6.568;2023-06-26T03:55:25;15.30;;;11.57;;
52618;SDS011;38513;53.234;6.568;2023-06-26T03:57:51;14.50;;;11.68;;
52618;SDS011;38513;53.234;6.568;2023-06-26T04:00:17;15.35;;;11.80;;
52618;SDS011;38513;53.234;6.568;2023-06-26T04:02:43;13.10;;;11.10;;
52618;SDS011;38513;53.234;6.568;2023-06-26T04:05:10;14.50;;;10.82;;
52618;SDS011;38513;53.234;6.568;2023-06-26T04:07:37;14.05;;;11.10;;
52618;SDS011;38513;53.234;6.568;2023-06-26T04:10:03;14.18;;;10.93;;
52618;SDS011;38513;53.234;6.568;2023-06-26T04:12:29;14.23;;;10.95;;
52618;SDS011;38513;53.234;6.568;2023-06-26T04:14:55;16.08;;;11.43;;
52618;SDS011;38513;53.234;6.568;2023-06-26T04:17:21;15.63;;;11.43;;
52618;SDS011;38513;53.234;6.568;2023-06-26T04:19:47;15.80;;;11.45;;
52618;SDS011;38513;53.234;6.568;2023-06-26T04:22:13;15.40;;;11.50;;
52618;SDS011;38513;53.234;6.568;2023-06-26T04:24:39;14.48;;;11.48;;
52618;SDS011;38513;53.234;6.568;2023-06-26T04:27:06;15.13;;;11.25;;
52618;SDS011;38513;53.234;6.568;2023-06-26T04:29:32;13.70;;;10.65;;
52618;SDS011;38513;53.234;6.568;2023-06-26T04:31:58;15.20;;;11.05;;
52618;SDS011;38513;53.234;6.568;2023-06-26T04:34:24;14.00;;;10.80;;
52618;SDS011;38513;53.234;6.568;2023-06-26T04:36:50;15.00;;;11.35;;
52618;SDS011;38513;53.234;6.568;2023-06-26T04:39:16;14.15;;;10.10;;
52618;SDS011;38513;53.234;6.568;2023-06-26T04:41:44;13.80;;;10.18;;
52618;SDS011;38513;53.234;6.568;2023-06-26T04:44:10;13.05;;;9.20;;
52618;SDS011;38513;53.234;6.568;2023-06-26T04:46:39;12.80;;;9.23;;
52618;SDS011;38513;53.234;6.568;2023-06-26T04:49:08;13.45;;;9.52;;
52618;SDS011;38513;53.234;6.568;2023-06-26T04:51:35;12.93;;;9.40;;
52618;SDS011;38513;53.234;6.568;2023-06-26T04:54:09;12.83;;;9.17;;
52618;SDS011;38513;53.234;6.568;2023-06-26T04:56:35;13.35;;;9.10;;
52618;SDS011;38513;53.234;6.568;2023-06-26T04:59:02;14.82;;;9.25;;
52618;SDS011;38513;53.234;6.568;2023-06-26T05:01:28;14.25;;;9.63;;
52618;SDS011;38513;53.234;6.568;2023-06-26T05:03:55;16.42;;;10.63;;
52618;SDS011;38513;53.234;6.568;2023-06-26T05:06:22;15.75;;;10.32;;
52618;SDS011;38513;53.234;6.568;2023-06-26T05:08:48;16.50;;;11.10;;
52618;SDS011;38513;53.234;6.568;2023-06-26T05:11:14;16.73;;;10.75;;
52618;SDS011;38513;53.234;6.568;2023-06-26T05:13:41;18.20;;;11.05;;
52618;SDS011;38513;53.234;6.568;2023-06-26T05:16:07;19.63;;;11.73;;
52618;SDS011;38513;53.234;6.568;2023-06-26T05:18:34;20.88;;;12.63;;
52618;SDS011;38513;53.234;6.568;2023-06-26T05:21:00;20.45;;;12.77;;
52618;SDS011;38513;53.234;6.568;2023-06-26T05:23:27;22.85;;;12.75;;
52618;SDS011;38513;53.234;6.568;2023-06-26T05:25:58;23.70;;;12.93;;
52618;SDS011;38513;53.234;6.568;2023-06-26T05:28:24;22.35;;;13.15;;
52618;SDS011;38513;53.234;6.568;2023-06-26T05:30:52;22.30;;;13.10;;
52618;SDS011;38513;53.234;6.568;2023-06-26T05:33:19;21.58;;;13.02;;
52618;SDS011;38513;53.234;6.568;2023-06-26T05:35:47;20.65;;;10.57;;
52618;SDS011;38513;53.234;6.568;2023-06-26T05:38:14;17.27;;;8.85;;
52618;SDS011;38513;53.234;6.568;2023-06-26T05:40:40;17.55;;;9.55;;
52618;SDS011;38513;53.234;6.568;2023-06-26T05:43:06;21.55;;;8.68;;
52618;SDS011;38513;53.234;6.568;2023-06-26T05:45:33;17.38;;;8.43;;
52618;SDS011;38513;53.234;6.568;2023-06-26T05:47:59;17.80;;;8.30;;
52618;SDS011;38513;53.234;6.568;2023-06-26T05:50:25;18.20;;;8.75;;
52618;SDS011;38513;53.234;6.568;2023-06-26T05:52:52;20.40;;;8.48;;
52618;SDS011;38513;53.234;6.568;2023-06-26T05:55:18;20.03;;;8.47;;
52618;SDS011;38513;53.234;6.568;2023-06-26T05:57:45;17.73;;;8.02;;
52618;SDS011;38513;53.234;6.568;2023-06-26T06:00:11;18.63;;;7.57;;
52618;SDS011;38513;53.234;6.568;2023-06-26T06:02:38;20.60;;;7.80;;
52618;SDS011;38513;53.234;6.568;2023-06-26T06:05:04;17.90;;;7.03;;
52618;SDS011;38513;53.234;6.568;2023-06-26T06:07:34;17.43;;;6.77;;
52618;SDS011;38513;53.234;6.568;2023-06-26T06:10:01;18.65;;;6.97;;
52618;SDS011;38513;53.234;6.568;2023-06-26T06:12:27;18.30;;;6.65;;
52618;SDS011;38513;53.234;6.568;2023-06-26T06:14:53;18.25;;;6.20;;
52618;SDS011;38513;53.234;6.568;2023-06-26T06:17:20;19.53;;;6.43;;
52618;SDS011;38513;53.234;6.568;2023-06-26T06:19:46;22.05;;;6.40;;
52618;SDS011;38513;53.234;6.568;2023-06-26T06:22:12;17.90;;;6.20;;
52618;SDS011;38513;53.234;6.568;2023-06-26T06:24:38;17.13;;;5.82;;
52618;SDS011;38513;53.234;6.568;2023-06-26T06:27:04;15.32;;;5.25;;
52618;SDS011;38513;53.234;6.568;2023-06-26T06:29:31;17.33;;;5.32;;
52618;SDS011;38513;53.234;6.568;2023-06-26T06:31:57;15.13;;;4.85;;
52618;SDS011;38513;53.234;6.568;2023-06-26T06:34:23;16.70;;;5.30;;
52618;SDS011;38513;53.234;6.568;2023-06-26T06:36:49;16.55;;;5.28;;
52618;SDS011;38513;53.234;6.568;2023-06-26T06:39:15;17.10;;;4.97;;
52618;SDS011;38513;53.234;6.568;2023-06-26T06:41:42;16.85;;;4.95;;
52618;SDS011;38513;53.234;6.568;2023-06-26T06:44:08;15.27;;;4.68;;
52618;SDS011;38513;53.234;6.568;2023-06-26T06:46:34;14.15;;;4.40;;
52618;SDS011;38513;53.234;6.568;2023-06-26T06:49:00;17.70;;;4.57;;
52618;SDS011;38513;53.234;6.568;2023-06-26T06:51:26;14.32;;;4.47;;
52618;SDS011;38513;53.234;6.568;2023-06-26T06:53:52;16.63;;;4.93;;
52618;SDS011;38513;53.234;6.568;2023-06-26T06:56:19;11.45;;;3.72;;
52618;SDS011;38513;53.234;6.568;2023-06-26T06:58:45;10.57;;;3.58;;
52618;SDS011;38513;53.234;6.568;2023-06-26T07:01:12;12.27;;;3.25;;
52618;SDS011;38513;53.234;6.568;2023-06-26T07:03:38;13.30;;;3.77;;
52618;SDS011;38513;53.234;6.568;2023-06-26T07:06:04;14.55;;;3.72;;
52618;SDS011;38513;53.234;6.568;2023-06-26T07:08:31;9.48;;;3.25;;
52618;SDS011;38513;53.234;6.568;2023-06-26T07:10:57;12.23;;;3.83;;
52618;SDS011;38513;53.234;6.568;2023-06-26T07:13:23;11.32;;;3.08;;
52618;SDS011;38513;53.234;6.568;2023-06-26T07:15:50;9.68;;;2.97;;
52618;SDS011;38513;53.234;6.568;2023-06-26T07:18:16;11.83;;;3.10;;
52618;SDS011;38513;53.234;6.568;2023-06-26T07:20:42;9.35;;;2.92;;
52618;SDS011;38513;53.234;6.568;2023-06-26T07:23:08;9.95;;;3.03;;
52618;SDS011;38513;53.234;6.568;2023-06-26T07:25:34;13.13;;;3.13;;
52618;SDS011;38513;53.234;6.568;2023-06-26T07:28:00;9.27;;;2.80;;
52618;SDS011;38513;53.234;6.568;2023-06-26T07:30:27;13.47;;;2.90;;
52618;SDS011;38513;53.234;6.568;2023-06-26T07:32:53;11.15;;;2.92;;
52618;SDS011;38513;53.234;6.568;2023-06-26T07:35:19;11.83;;;2.83;;
52618;SDS011;38513;53.234;6.568;2023-06-26T07:37:45;10.18;;;2.78;;
52618;SDS011;38513;53.234;6.568;2023-06-26T07:40:11;11.13;;;2.58;;
52618;SDS011;38513;53.234;6.568;2023-06-26T07:42:37;10.25;;;2.65;;
52618;SDS011;38513;53.234;6.568;2023-06-26T07:45:05;8.68;;;2.47;;
52618;SDS011;38513;53.234;6.568;2023-06-26T07:47:36;9.35;;;2.50;;
52618;SDS011;38513;53.234;6.568;2023-06-26T07:50:02;7.63;;;2.13;;
52618;SDS011;38513;53.234;6.568;2023-06-26T07:52:29;9.55;;;2.30;;
52618;SDS011;38513;53.234;6.568;2023-06-26T07:54:57;6.35;;;2.03;;
52618;SDS011;38513;53.234;6.568;2023-06-26T07:57:24;8.43;;;2.33;;
52618;SDS011;38513;53.234;6.568;2023-06-26T07:59:50;7.50;;;2.25;;
52618;SDS011;38513;53.234;6.568;2023-06-26T08:02:16;8.02;;;2.20;;
52618;SDS011;38513;53.234;6.568;2023-06-26T08:04:43;7.47;;;2.10;;
52618;SDS011;38513;53.234;6.568;2023-06-26T08:07:09;10.47;;;2.20;;
52618;SDS011;38513;53.234;6.568;2023-06-26T08:09:35;13.10;;;2.90;;
52618;SDS011;38513;53.234;6.568;2023-06-26T08:12:02;11.70;;;2.75;;
52618;SDS011;38513;53.234;6.568;2023-06-26T08:14:28;10.65;;;2.50;;
52618;SDS011;38513;53.234;6.568;2023-06-26T08:16:54;9.40;;;2.50;;
52618;SDS011;38513;53.234;6.568;2023-06-26T08:19:20;7.30;;;2.27;;
52618;SDS011;38513;53.234;6.568;2023-06-26T08:21:47;9.48;;;2.50;;
52618;SDS011;38513;53.234;6.568;2023-06-26T08:24:13;9.30;;;2.50;;
52618;SDS011;38513;53.234;6.568;2023-06-26T08:26:41;9.18;;;2.30;;
52618;SDS011;38513;53.234;6.568;2023-06-26T08:29:08;9.63;;;2.58;;
52618;SDS011;38513;53.234;6.568;2023-06-26T08:31:34;9.80;;;2.63;;
52618;SDS011;38513;53.234;6.568;2023-06-26T08:34:01;11.73;;;3.00;;
52618;SDS011;38513;53.234;6.568;2023-06-26T08:36:28;9.57;;;2.45;;
52618;SDS011;38513;53.234;6.568;2023-06-26T08:38:54;9.57;;;2.90;;
52618;SDS011;38513;53.234;6.568;2023-06-26T08:41:20;10.75;;;2.60;;
52618;SDS011;38513;53.234;6.568;2023-06-26T08:43:46;9.77;;;2.60;;
52618;SDS011;38513;53.234;6.568;2023-06-26T08:46:15;8.52;;;2.47;;
52618;SDS011;38513;53.234;6.568;2023-06-26T08:48:41;10.77;;;3.10;;
52618;SDS011;38513;53.234;6.568;2023-06-26T08:51:16;9.25;;;2.70;;
52618;SDS011;38513;53.234;6.568;2023-06-26T08:53:50;8.20;;;2.40;;
52618;SDS011;38513;53.234;6.568;2023-06-26T08:56:18;7.93;;;2.45;;
52618;SDS011;38513;53.234;6.568;2023-06-26T08:58:47;7.68;;;2.40;;
52618;SDS011;38513;53.234;6.568;2023-06-26T09:01:13;9.48;;;2.53;;
52618;SDS011;38513;53.234;6.568;2023-06-26T09:03:39;9.82;;;2.50;;
52618;SDS011;38513;53.234;6.568;2023-06-26T09:06:06;8.13;;;2.40;;
52618;SDS011;38513;53.234;6.568;2023-06-26T09:08:33;10.05;;;2.60;;
52618;SDS011;38513;53.234;6.568;2023-06-26T09:10:59;6.78;;;2.30;;
52618;SDS011;38513;53.234;6.568;2023-06-26T09:13:25;7.70;;;2.57;;
52618;SDS011;38513;53.234;6.568;2023-06-26T09:15:52;7.50;;;2.53;;
52618;SDS011;38513;53.234;6.568;2023-06-26T09:18:20;7.78;;;2.28;;
52618;SDS011;38513;53.234;6.568;2023-06-26T09:20:46;9.25;;;2.40;;
52618;SDS011;38513;53.234;6.568;2023-06-26T09:23:13;8.88;;;2.50;;
52618;SDS011;38513;53.234;6.568;2023-06-26T09:25:39;7.85;;;2.80;;
52618;SDS011;38513;53.234;6.568;2023-06-26T09:28:06;7.70;;;2.60;;
52618;SDS011;38513;53.234;6.568;2023-06-26T09:30:32;10.00;;;2.72;;
52618;SDS011;38513;53.234;6.568;2023-06-26T09:33:13;9.18;;;2.83;;
52618;SDS011;38513;53.234;6.568;2023-06-26T09:35:39;10.10;;;2.50;;
52618;SDS011;38513;53.234;6.568;2023-06-26T09:38:07;8.23;;;2.60;;
52618;SDS011;38513;53.234;6.568;2023-06-26T09:40:33;11.10;;;2.70;;
52618;SDS011;38513;53.234;6.568;2023-06-26T09:43:04;8.20;;;2.60;;
52618;SDS011;38513;53.234;6.568;2023-06-26T09:45:31;8.77;;;2.75;;
52618;SDS011;38513;53.234;6.568;2023-06-26T09:47:59;8.07;;;2.67;;
52618;SDS011;38513;53.234;6.568;2023-06-26T09:50:26;8.25;;;2.60;;
52618;SDS011;38513;53.234;6.568;2023-06-26T09:52:52;7.03;;;2.45;;
52618;SDS011;38513;53.234;6.568;2023-06-26T09:55:19;7.60;;;2.80;;
52618;SDS011;38513;53.234;6.568;2023-06-26T09:57:51;10.98;;;3.25;;
52618;SDS011;38513;53.234;6.568;2023-06-26T10:00:17;7.47;;;3.30;;
52618;SDS011;38513;53.234;6.568;2023-06-26T10:02:43;9.93;;;3.00;;
52618;SDS011;38513;53.234;6.568;2023-06-26T10:05:10;7.45;;;3.30;;
52618;SDS011;38513;53.234;6.568;2023-06-26T10:07:36;7.70;;;3.20;;
52618;SDS011;38513;53.234;6.568;2023-06-26T10:10:03;9.68;;;3.05;;
52618;SDS011;38513;53.234;6.568;2023-06-26T10:12:30;8.07;;;3.00;;
52618;SDS011;38513;53.234;6.568;2023-06-26T10:14:57;7.40;;;3.50;;
52618;SDS011;38513;53.234;6.568;2023-06-26T10:17:24;10.43;;;3.60;;
52618;SDS011;38513;53.234;6.568;2023-06-26T10:19:50;8.20;;;2.90;;
52618;SDS011;38513;53.234;6.568;2023-06-26T10:22:19;7.13;;;2.92;;
52618;SDS011;38513;53.234;6.568;2023-06-26T10:24:47;7.25;;;2.70;;
52618;SDS011;38513;53.234;6.568;2023-06-26T10:29:39;6.77;;;2.80;;
52618;SDS011;38513;53.234;6.568;2023-06-26T10:32:06;6.88;;;3.28;;
52618;SDS011;38513;53.234;6.568;2023-06-26T10:34:33;8.77;;;3.00;;
52618;SDS011;38513;53.234;6.568;2023-06-26T10:37:00;7.53;;;3.38;;
52618;SDS011;38513;53.234;6.568;2023-06-26T10:39:26;7.70;;;3.17;;
52618;SDS011;38513;53.234;6.568;2023-06-26T10:41:54;7.70;;;3.00;;
52618;SDS011;38513;53.234;6.568;2023-06-26T10:44:21;6.68;;;2.70;;
52618;SDS011;38513;53.234;6.568;2023-06-26T10:46:51;7.85;;;3.35;;
52618;SDS011;38513;53.234;6.568;2023-06-26T10:49:21;8.07;;;2.90;;
52618;SDS011;38513;53.234;6.568;2023-06-26T10:51:50;7.47;;;3.25;;
52618;SDS011;38513;53.234;6.568;2023-06-26T10:54:17;9.10;;;3.63;;
52618;SDS011;38513;53.234;6.568;2023-06-26T10:56:47;8.98;;;3.28;;
52618;SDS011;38513;53.234;6.568;2023-06-26T10:59:21;7.65;;;3.17;;
52618;SDS011;38513;53.234;6.568;2023-06-26T11:01:54;8.52;;;3.22;;
52618;SDS011;38513;53.234;6.568;2023-06-26T11:07:19;7.78;;;2.30;;
52618;SDS011;38513;53.234;6.568;2023-06-26T11:09:55;7.93;;;2.50;;
52618;SDS011;38513;53.234;6.568;2023-06-26T11:15:00;6.72;;;2.30;;
52618;SDS011;38513;53.234;6.568;2023-06-26T11:17:27;8.18;;;2.60;;
52618;SDS011;38513;53.234;6.568;2023-06-26T11:19:54;10.60;;;4.05;;
52618;SDS011;38513;53.234;6.568;2023-06-26T11:22:21;8.07;;;2.65;;
52618;SDS011;38513;53.234;6.568;2023-06-26T11:24:47;8.30;;;2.50;;
52618;SDS011;38513;53.234;6.568;2023-06-26T11:27:14;10.07;;;2.40;;
52618;SDS011;38513;53.234;6.568;2023-06-26T11:29:41;8.50;;;2.10;;
52618;SDS011;38513;53.234;6.568;2023-06-26T11:32:13;8.23;;;2.03;;
52618;SDS011;38513;53.234;6.568;2023-06-26T11:34:39;8.27;;;2.10;;
52618;SDS011;38513;53.234;6.568;2023-06-26T11:37:08;9.65;;;2.17;;
52618;SDS011;38513;53.234;6.568;2023-06-26T11:39:34;9.93;;;1.97;;
52618;SDS011;38513;53.234;6.568;2023-06-26T11:42:02;10.57;;;2.08;;
52618;SDS011;38513;53.234;6.568;2023-06-26T11:44:29;8.27;;;2.07;;
52618;SDS011;38513;53.234;6.568;2023-06-26T11:46:55;10.80;;;2.30;;
52618;SDS011;38513;53.234;6.568;2023-06-26T11:49:22;11.10;;;2.30;;
52618;SDS011;38513;53.234;6.568;2023-06-26T11:51:50;10.68;;;2.00;;
52618;SDS011;38513;53.234;6.568;2023-06-26T11:54:23;7.57;;;1.70;;
52618;SDS011;38513;53.234;6.568;2023-06-26T11:56:56;9.23;;;1.92;;
52618;SDS011;38513;53.234;6.568;2023-06-26T11:59:23;7.45;;;1.60;;
52618;SDS011;38513;53.234;6.568;2023-06-26T12:01:49;9.68;;;2.30;;
52618;SDS011;38513;53.234;6.568;2023-06-26T12:04:17;6.50;;;1.85;;
52618;SDS011;38513;53.234;6.568;2023-06-26T12:06:48;9.15;;;2.10;;
52618;SDS011;38513;53.234;6.568;2023-06-26T12:09:15;8.60;;;2.00;;
52618;SDS011;38513;53.234;6.568;2023-06-26T12:11:43;9.17;;;1.73;;
52618;SDS011;38513;53.234;6.568;2023-06-26T12:14:10;7.97;;;1.80;;
52618;SDS011;38513;53.234;6.568;2023-06-26T12:16:37;8.80;;;1.80;;
52618;SDS011;38513;53.234;6.568;2023-06-26T12:19:04;9.18;;;2.10;;
52618;SDS011;38513;53.234;6.568;2023-06-26T12:24:06;6.72;;;1.95;;
52618;SDS011;38513;53.234;6.568;2023-06-26T12:26:32;17.30;;;2.83;;
52618;SDS011;38513;53.234;6.568;2023-06-26T12:29:08;7.33;;;2.27;;
52618;SDS011;38513;53.234;6.568;2023-06-26T12:31:34;8.43;;;2.10;;
52618;SDS011;38513;53.234;6.568;2023-06-26T12:34:01;8.90;;;2.30;;
52618;SDS011;38513;53.234;6.568;2023-06-26T12:36:27;7.13;;;1.67;;
52618;SDS011;38513;53.234;6.568;2023-06-26T12:38:54;8.63;;;2.25;;
52618;SDS011;38513;53.234;6.568;2023-06-26T12:41:23;8.27;;;2.05;;
52618;SDS011;38513;53.234;6.568;2023-06-26T12:43:49;9.57;;;2.90;;
52618;SDS011;38513;53.234;6.568;2023-06-26T12:46:22;7.57;;;2.47;;
52618;SDS011;38513;53.234;6.568;2023-06-26T12:48:58;9.93;;;2.80;;
52618;SDS011;38513;53.234;6.568;2023-06-26T12:51:25;9.00;;;1.90;;
52618;SDS011;38513;53.234;6.568;2023-06-26T12:53:52;8.67;;;2.00;;
52618;SDS011;38513;53.234;6.568;2023-06-26T12:56:18;8.02;;;1.85;;
52618;SDS011;38513;53.234;6.568;2023-06-26T12:58:45;6.90;;;1.70;;
52618;SDS011;38513;53.234;6.568;2023-06-26T13:01:11;9.43;;;1.90;;
52618;SDS011;38513;53.234;6.568;2023-06-26T13:03:40;7.95;;;1.80;;
52618;SDS011;38513;53.234;6.568;2023-06-26T13:06:06;6.27;;;1.60;;
52618;SDS011;38513;53.234;6.568;2023-06-26T13:08:33;7.43;;;1.75;;
52618;SDS011;38513;53.234;6.568;2023-06-26T13:10:59;7.07;;;1.98;;
52618;SDS011;38513;53.234;6.568;2023-06-26T13:13:25;8.83;;;1.80;;
52618;SDS011;38513;53.234;6.568;2023-06-26T13:15:52;7.18;;;1.77;;
52618;SDS011;38513;53.234;6.568;2023-06-26T13:18:18;8.85;;;1.83;;
52618;SDS011;38513;53.234;6.568;2023-06-26T13:20:45;7.35;;;1.90;;
52618;SDS011;38513;53.234;6.568;2023-06-26T13:23:11;10.23;;;2.08;;
52618;SDS011;38513;53.234;6.568;2023-06-26T13:25:37;9.00;;;1.87;;
52618;SDS011;38513;53.234;6.568;2023-06-26T13:28:03;6.95;;;2.35;;
52618;SDS011;38513;53.234;6.568;2023-06-26T13:30:29;12.23;;;2.33;;
52618;SDS011;38513;53.234;6.568;2023-06-26T13:32:56;7.68;;;2.00;;
52618;SDS011;38513;53.234;6.568;2023-06-26T13:35:22;9.55;;;2.17;;
52618;SDS011;38513;53.234;6.568;2023-06-26T13:37:48;8.38;;;2.15;;
52618;SDS011;38513;53.234;6.568;2023-06-26T13:40:14;8.63;;;2.10;;
52618;SDS011;38513;53.234;6.568;2023-06-26T13:42:40;8.07;;;1.98;;
52618;SDS011;38513;53.234;6.568;2023-06-26T13:45:07;10.27;;;2.33;;
52618;SDS011;38513;53.234;6.568;2023-06-26T13:47:33;8.35;;;2.40;;
52618;SDS011;38513;53.234;6.568;2023-06-26T13:49:59;8.90;;;2.30;;
52618;SDS011;38513;53.234;6.568;2023-06-26T13:52:25;8.98;;;2.35;;
52618;SDS011;38513;53.234;6.568;2023-06-26T13:54:52;8.30;;;2.27;;
52618;SDS011;38513;53.234;6.568;2023-06-26T13:57:18;9.43;;;2.35;;
52618;SDS011;38513;53.234;6.568;2023-06-26T13:59:47;10.77;;;2.40;;
52618;SDS011;38513;53.234;6.568;2023-06-26T14:02:13;7.82;;;2.25;;
52618;SDS011;38513;53.234;6.568;2023-06-26T14:04:39;9.30;;;2.53;;
52618;SDS011;38513;53.234;6.568;2023-06-26T14:07:06;7.90;;;2.40;;
52618;SDS011;38513;53.234;6.568;2023-06-26T14:09:32;8.43;;;2.33;;
52618;SDS011;38513;53.234;6.568;2023-06-26T14:11:58;8.90;;;2.25;;
52618;SDS011;38513;53.234;6.568;2023-06-26T14:14:24;9.23;;;2.20;;
52618;SDS011;38513;53.234;6.568;2023-06-26T14:16:50;7.75;;;2.30;;
52618;SDS011;38513;53.234;6.568;2023-06-26T14:19:17;10.43;;;2.60;;
52618;SDS011;38513;53.234;6.568;2023-06-26T14:21:43;7.85;;;2.28;;
52618;SDS011;38513;53.234;6.568;2023-06-26T14:24:12;11.75;;;2.53;;
52618;SDS011;38513;53.234;6.568;2023-06-26T14:26:38;9.07;;;2.47;;
52618;SDS011;38513;53.234;6.568;2023-06-26T14:29:04;9.60;;;2.40;;
52618;SDS011;38513;53.234;6.568;2023-06-26T14:31:30;11.38;;;2.47;;
52618;SDS011;38513;53.234;6.568;2023-06-26T14:33:56;12.15;;;2.67;;
52618;SDS011;38513;53.234;6.568;2023-06-26T14:36:24;11.40;;;2.33;;
52618;SDS011;38513;53.234;6.568;2023-06-26T14:38:52;9.60;;;2.35;;
52618;SDS011;38513;53.234;6.568;2023-06-26T14:41:18;8.27;;;2.08;;
52618;SDS011;38513;53.234;6.568;2023-06-26T14:43:44;12.13;;;2.28;;
52618;SDS011;38513;53.234;6.568;2023-06-26T14:46:10;10.77;;;2.10;;
52618;SDS011;38513;53.234;6.568;2023-06-26T14:48:37;10.95;;;2.15;;
52618;SDS011;38513;53.234;6.568;2023-06-26T14:51:03;9.73;;;2.27;;
52618;SDS011;38513;53.234;6.568;2023-06-26T14:53:29;10.65;;;2.38;;